Time,TemperatureF,DewpointF,PressureIn,WindDirection,WindDirectionDegrees,WindSpeedMPH,WindSpeedGustMPH,Humidity,HourlyPrecipIn,Conditions,Clouds,dailyrainin,SolarRadiationWatts/m^2,SoftwareType,DateUTC
2013-01-17 00:22:00,26.0,15.0,-100.00,ESE,118,4.0,7.0,63,0.00,,,0.02,0.000000,,2013-01-17 07:22:00,
2013-01-17 00:32:00,26.0,15.0,-100.00,ESE,118,4.0,7.0,63,0.00,,,0.02,0.000000,,2013-01-17 07:32:00,
2013-01-17 00:42:00,26.0,15.0,-100.00,ESE,118,4.0,7.0,63,0.00,,,0.02,0.000000,,2013-01-17 07:42:00,
2013-01-17 00:52:00,26.0,15.0,-100.00,ESE,118,4.0,7.0,63,0.00,,,0.02,0.000000,,2013-01-17 07:52:00,
2013-01-17 01:22:00,25.0,15.0,-100.00,SE,135,8.0,10.0,65,0.00,,,0.02,0.000000,,2013-01-17 08:22:00,
2013-01-17 01:32:00,25.0,15.0,-100.00,SE,135,8.0,10.0,65,0.00,,,0.02,0.000000,,2013-01-17 08:32:00,
2013-01-17 01:43:00,25.0,15.0,-100.00,SE,135,8.0,10.0,65,0.00,,,0.02,0.000000,,2013-01-17 08:43:00,
2013-01-17 01:52:00,25.0,15.0,-100.00,SE,135,8.0,10.0,65,0.00,,,0.02,0.000000,,2013-01-17 08:52:00,
2013-01-17 02:32:00,25.0,15.0,-100.00,SE,125,8.0,10.0,65,0.00,,,0.02,0.000000,,2013-01-17 09:32:00,
2013-01-17 02:42:00,25.0,15.0,-100.00,SE,125,8.0,10.0,65,0.00,,,0.02,0.000000,,2013-01-17 09:42:00,
2013-01-17 02:52:00,25.0,15.0,-100.00,SE,125,8.0,10.0,65,0.00,,,0.02,0.000000,,2013-01-17 09:52:00,
2013-01-17 03:22:00,24.0,15.0,-100.00,SE,136,7.0,11.0,67,0.00,,,0.02,0.000000,,2013-01-17 10:22:00,
2013-01-17 03:32:00,24.0,15.0,-100.00,SE,136,7.0,11.0,67,0.00,,,0.02,0.000000,,2013-01-17 10:32:00,
2013-01-17 03:42:00,24.0,15.0,-100.00,SE,136,7.0,11.0,67,0.00,,,0.02,0.000000,,2013-01-17 10:42:00,
2013-01-17 03:52:00,24.0,15.0,-100.00,SE,136,7.0,11.0,67,0.00,,,0.02,0.000000,,2013-01-17 10:52:00,
2013-01-17 04:22:00,24.0,15.0,-100.00,SE,130,8.0,11.0,68,0.00,,,0.02,0.000000,,2013-01-17 11:22:00,
2013-01-17 04:32:00,24.0,15.0,-100.00,SE,130,8.0,11.0,68,0.00,,,0.02,0.000000,,2013-01-17 11:32:00,
2013-01-17 04:42:00,24.0,15.0,-100.00,SE,130,8.0,11.0,68,0.00,,,0.02,0.000000,,2013-01-17 11:42:00,
2013-01-17 04:52:00,24.0,15.0,-100.00,SE,130,8.0,11.0,68,0.00,,,0.02,0.000000,,2013-01-17 11:52:00,
2013-01-17 05:22:00,21.0,11.0,-100.00,SE,138,8.0,11.0,66,0.00,,,0.02,0.000000,,2013-01-17 12:22:00,
2013-01-17 05:32:00,21.0,11.0,-100.00,SE,138,8.0,11.0,66,0.00,,,0.02,0.000000,,2013-01-17 12:32:00,
2013-01-17 05:42:00,21.0,11.0,-100.00,SE,138,8.0,11.0,66,0.00,,,0.02,0.000000,,2013-01-17 12:42:00,
2013-01-17 05:52:00,21.0,11.0,-100.00,SE,138,8.0,11.0,66,0.00,,,0.02,0.000000,,2013-01-17 12:52:00,
2013-01-17 06:22:00,22.0,14.0,-100.00,SE,139,9.0,12.0,70,0.00,,,0.02,0.000000,,2013-01-17 13:22:00,
2013-01-17 06:33:00,22.0,14.0,-100.00,SE,139,9.0,12.0,70,0.00,,,0.02,0.000000,,2013-01-17 13:33:00,
2013-01-17 06:42:00,22.0,14.0,-100.00,SE,139,9.0,12.0,70,0.00,,,0.02,0.000000,,2013-01-17 13:42:00,
2013-01-17 06:52:00,22.0,14.0,-100.00,SE,139,9.0,12.0,70,0.00,,,0.02,0.000000,,2013-01-17 13:52:00,
2013-01-17 07:23:00,19.0,10.0,-100.00,SE,139,7.0,11.0,67,0.00,,,0.02,0.000000,,2013-01-17 14:23:00,
2013-01-17 07:42:00,19.0,10.0,-100.00,SE,139,7.0,11.0,67,0.00,,,0.02,0.000000,,2013-01-17 14:42:00,
2013-01-17 07:52:00,19.0,10.0,-100.00,SE,139,7.0,11.0,67,0.00,,,0.02,0.000000,,2013-01-17 14:52:00,
2013-01-17 08:22:00,21.0,13.0,-100.00,SE,129,7.0,10.0,70,0.00,,,0.02,4.000000,,2013-01-17 15:22:00,
2013-01-17 08:33:00,21.0,13.0,-100.00,SE,129,7.0,10.0,70,0.00,,,0.02,4.000000,,2013-01-17 15:33:00,
2013-01-17 08:43:00,21.0,13.0,-100.00,SE,129,7.0,10.0,70,0.00,,,0.02,4.000000,,2013-01-17 15:43:00,
2013-01-17 08:52:00,21.0,13.0,-100.00,SE,129,7.0,10.0,70,0.00,,,0.02,4.000000,,2013-01-17 15:52:00,
2013-01-17 09:22:00,23.0,13.0,-100.00,SE,140,9.0,11.0,65,0.00,,,0.02,88.000000,,2013-01-17 16:22:00,
2013-01-17 09:33:00,23.0,13.0,-100.00,SE,140,9.0,11.0,65,0.00,,,0.02,88.000000,,2013-01-17 16:33:00,
2013-01-17 09:43:00,23.0,13.0,-100.00,SE,140,9.0,11.0,65,0.00,,,0.02,88.000000,,2013-01-17 16:43:00,
2013-01-17 09:52:00,23.0,13.0,-100.00,SE,140,9.0,11.0,65,0.00,,,0.02,88.000000,,2013-01-17 16:52:00,
2013-01-17 10:22:00,29.0,17.0,-100.00,SE,127,8.0,12.0,61,0.00,,,0.02,186.000000,,2013-01-17 17:22:00,
2013-01-17 10:33:00,29.0,17.0,-100.00,SE,127,8.0,12.0,61,0.00,,,0.02,186.000000,,2013-01-17 17:33:00,
2013-01-17 10:43:00,29.0,17.0,-100.00,SE,127,8.0,12.0,61,0.00,,,0.02,186.000000,,2013-01-17 17:43:00,
2013-01-17 10:53:00,29.0,17.0,-100.00,SE,127,8.0,12.0,61,0.00,,,0.02,186.000000,,2013-01-17 17:53:00,
2013-01-17 11:22:00,34.0,19.0,-100.00,SE,139,8.0,10.0,53,0.00,,,0.00,309.000000,,2013-01-17 18:22:00,
2013-01-17 11:33:00,34.0,19.0,-100.00,SE,139,8.0,10.0,53,0.00,,,0.00,309.000000,,2013-01-17 18:33:00,
2013-01-17 11:43:00,34.0,19.0,-100.00,SE,139,8.0,10.0,53,0.00,,,0.00,309.000000,,2013-01-17 18:43:00,
2013-01-17 11:52:00,34.0,19.0,-100.00,SE,139,8.0,10.0,53,0.00,,,0.00,309.000000,,2013-01-17 18:52:00,
2013-01-17 13:22:00,41.0,23.0,-100.00,SSE,156,5.0,10.0,48,-99.99,,,0.00,410.000000,,2013-01-17 20:22:00,
2013-01-17 13:33:00,41.0,23.0,-100.00,SSE,156,5.0,10.0,48,-99.99,,,0.00,410.000000,,2013-01-17 20:33:00,
2013-01-17 13:43:00,41.0,23.0,-100.00,SSE,156,5.0,10.0,48,-99.99,,,0.00,410.000000,,2013-01-17 20:43:00,
2013-01-17 13:53:00,41.0,23.0,-100.00,SSE,156,5.0,10.0,48,-99.99,,,0.00,410.000000,,2013-01-17 20:53:00,
2013-01-17 14:23:00,42.0,24.0,-100.00,SSE,151,6.0,9.0,49,0.00,,,0.00,345.000000,,2013-01-17 21:23:00,
2013-01-17 14:33:00,42.0,24.0,-100.00,SSE,151,6.0,9.0,49,0.00,,,0.00,345.000000,,2013-01-17 21:33:00,
2013-01-17 14:42:00,42.0,24.0,-100.00,SSE,151,6.0,9.0,49,0.00,,,0.00,345.000000,,2013-01-17 21:42:00,
2013-01-17 14:52:00,42.0,24.0,-100.00,SSE,151,6.0,9.0,49,0.00,,,0.00,345.000000,,2013-01-17 21:52:00,
2013-01-17 15:22:00,45.0,25.0,-100.00,East,88,4.0,8.0,46,0.00,,,0.00,299.000000,,2013-01-17 22:22:00,
2013-01-17 15:33:00,45.0,25.0,-100.00,East,88,4.0,8.0,46,0.00,,,0.00,299.000000,,2013-01-17 22:33:00,
2013-01-17 15:42:00,45.0,25.0,-100.00,East,88,4.0,8.0,46,0.00,,,0.00,299.000000,,2013-01-17 22:42:00,
2013-01-17 15:52:00,45.0,25.0,-100.00,East,88,4.0,8.0,46,0.00,,,0.00,299.000000,,2013-01-17 22:52:00,
2013-01-17 16:22:00,45.0,23.0,-100.00,WNW,292,2.0,5.0,41,0.00,,,0.00,167.000000,,2013-01-17 23:22:00,
2013-01-17 16:32:00,45.0,23.0,-100.00,WNW,292,2.0,5.0,41,0.00,,,0.00,167.000000,,2013-01-17 23:32:00,
2013-01-17 16:42:00,45.0,23.0,-100.00,WNW,292,2.0,5.0,41,0.00,,,0.00,167.000000,,2013-01-17 23:42:00,
2013-01-17 16:52:00,45.0,23.0,-100.00,WNW,292,2.0,5.0,41,0.00,,,0.00,167.000000,,2013-01-17 23:52:00,
2013-01-17 17:23:00,36.0,21.0,-100.00,SE,144,4.0,6.0,54,0.00,,,0.00,31.000000,,2013-01-18 00:23:00,
2013-01-17 18:22:00,35.0,21.0,-100.00,SE,138,5.0,10.0,57,0.00,,,0.00,1.000000,,2013-01-18 01:22:00,
2013-01-17 18:33:00,35.0,21.0,-100.00,SE,138,5.0,10.0,57,0.00,,,0.00,1.000000,,2013-01-18 01:33:00,
2013-01-17 19:32:00,31.0,19.0,-100.00,SSE,147,5.0,7.0,61,0.00,,,0.00,0.000000,,2013-01-18 02:32:00,
2013-01-17 19:42:00,31.0,19.0,-100.00,SSE,147,5.0,7.0,61,0.00,,,0.00,0.000000,,2013-01-18 02:42:00,
2013-01-17 19:52:00,31.0,19.0,-100.00,SSE,147,5.0,7.0,61,0.00,,,0.00,0.000000,,2013-01-18 02:52:00,
2013-01-17 20:22:00,31.0,20.0,-100.00,SE,137,9.0,11.0,63,0.00,,,0.00,0.000000,,2013-01-18 03:22:00,
2013-01-17 20:33:00,31.0,20.0,-100.00,SE,137,9.0,11.0,63,0.00,,,0.00,0.000000,,2013-01-18 03:33:00,
2013-01-17 20:42:00,31.0,20.0,-100.00,SE,137,9.0,11.0,63,0.00,,,0.00,0.000000,,2013-01-18 03:42:00,
2013-01-17 20:52:00,31.0,20.0,-100.00,SE,137,9.0,11.0,63,0.00,,,0.00,0.000000,,2013-01-18 03:52:00,
2013-01-17 21:32:00,29.0,19.0,-100.00,SE,146,10.0,13.0,66,0.00,,,0.00,0.000000,,2013-01-18 04:32:00,
2013-01-17 21:42:00,29.0,19.0,-100.00,SE,146,10.0,13.0,66,0.00,,,0.00,0.000000,,2013-01-18 04:42:00,
2013-01-17 21:52:00,29.0,19.0,-100.00,SE,146,10.0,13.0,66,0.00,,,0.00,0.000000,,2013-01-18 04:52:00,
2013-01-17 22:42:00,30.0,20.0,-100.00,SSE,155,10.0,12.0,65,0.00,,,0.00,0.000000,,2013-01-18 05:42:00,
2013-01-17 22:52:00,30.0,20.0,-100.00,SSE,155,10.0,12.0,65,0.00,,,0.00,0.000000,,2013-01-18 05:52:00,
2013-01-17 23:22:00,31.0,18.0,-100.00,SSE,150,10.0,14.0,57,0.00,,,0.00,0.000000,,2013-01-18 06:22:00,
2013-01-17 23:32:00,31.0,18.0,-100.00,SSE,150,10.0,14.0,57,0.00,,,0.00,0.000000,,2013-01-18 06:32:00,
2013-01-17 23:43:00,31.0,18.0,-100.00,SSE,150,10.0,14.0,57,0.00,,,0.00,0.000000,,2013-01-18 06:43:00,
2013-01-17 23:52:00,31.0,18.0,-100.00,SSE,150,10.0,14.0,57,0.00,,,0.00,0.000000,,2013-01-18 06:52:00,